Time;durP1;ratioP1;P1;durP2;ratioP2;P2;SDS_P1;SDS_P2;PMS_P1;PMS_P2;Temp;Humidity;BMP_temperature;BMP_pressure;BME280_temperature;BME280_humidity;BME280_pressure;Samples;Min_cycle;Max_cycle;Signal;HPM_P1;HPM_P2
2021/12/02 00:00:18;;;;;;;5.55;1.00;;;;;;;3.77;100.00;96083.38;10491106;28;20127;-64
2021/12/02 00:05:22;;;;;;;4.25;1.00;;;;;;;3.70;100.00;96100.03;10494471;28;20045;-63
2021/12/02 00:10:28;;;;;;;6.13;1.10;;;;;;;3.63;100.00;96109.75;10497002;28;20576;-64
2021/12/02 00:15:36;;;;;;;6.53;1.10;;;;;;;3.53;100.00;96106.47;10507810;28;20044;-63
2021/12/02 00:26:04;;;;;;;7.82;1.33;;;;;;;3.46;100.00;96110.84;10497806;28;20041;-64
2021/12/02 00:31:15;;;;;;;5.90;1.10;;;;;;;3.43;100.00;96125.31;10493916;28;20046;-61
2021/12/02 00:36:19;;;;;;;6.50;1.50;;;;;;;3.45;100.00;96128.63;10494809;28;20053;-62
2021/12/02 00:41:24;;;;;;;6.60;1.27;;;;;;;3.47;100.00;96125.81;10497077;28;20046;-64
2021/12/02 00:46:31;;;;;;;5.28;1.30;;;;;;;3.44;100.00;96123.50;10493622;28;20046;-63
2021/12/02 00:51:36;;;;;;;7.22;1.27;;;;;;;3.32;100.00;96113.22;10496873;28;20445;-63
2021/12/02 00:56:40;;;;;;;6.85;1.30;;;;;;;3.31;100.00;96122.22;10491128;28;20033;-63
2021/12/02 01:01:46;;;;;;;6.07;1.05;;;;;;;3.33;100.00;96120.22;10497094;28;20052;-60
2021/12/02 01:06:50;;;;;;;5.05;1.10;;;;;;;3.26;100.00;96129.06;10492245;28;20048;-62
2021/12/02 01:11:55;;;;;;;4.72;1.00;;;;;;;3.16;100.00;96146.06;10500070;28;20044;-62
2021/12/02 01:16:59;;;;;;;3.10;0.93;;;;;;;3.19;100.00;96144.88;10494200;28;20044;-63
2021/12/02 01:22:04;;;;;;;4.55;1.10;;;;;;;3.11;100.00;96158.19;10498092;28;20420;-64
2021/12/02 01:27:10;;;;;;;5.07;1.20;;;;;;;3.06;100.00;96156.88;10520195;28;20040;-63
2021/12/02 01:32:16;;;;;;;10.02;1.25;;;;;;;2.99;100.00;96176.34;10495109;28;20376;-64
2021/12/02 01:37:19;;;;;;;8.57;1.90;;;;;;;3.03;100.00;96173.16;10487521;28;20102;-64
2021/12/02 01:42:26;;;;;;;5.70;1.30;;;;;;;3.02;100.00;96171.50;10493773;28;20041;-64
2021/12/02 01:47:33;;;;;;;7.25;1.50;;;;;;;2.92;100.00;96173.50;10490498;28;20043;-63
2021/12/02 01:52:43;;;;;;;8.10;1.55;;;;;;;2.88;100.00;96175.69;10492600;28;20091;-65
2021/12/02 01:57:54;;;;;;;4.60;1.30;;;;;;;2.83;100.00;96178.00;10488941;28;20505;-63
2021/12/02 02:03:20;;;;;;;8.27;1.50;;;;;;;2.84;100.00;96182.34;10512646;28;20156;-64
2021/12/02 02:08:24;;;;;;;7.80;1.58;;;;;;;2.89;100.00;96193.31;10232540;28;20070;-59
2021/12/02 02:13:28;;;;;;;7.40;1.40;;;;;;;2.89;100.00;96200.44;10248455;28;20094;-61
2021/12/02 02:18:32;;;;;;;6.68;1.30;;;;;;;2.94;100.00;96214.06;10212162;28;20049;-60
2021/12/02 02:23:39;;;;;;;9.13;1.80;;;;;;;2.96;100.00;96214.75;10219381;28;20059;-59
2021/12/02 02:28:42;;;;;;;5.43;1.27;;;;;;;2.88;100.00;96228.06;10209281;28;20532;-60
2021/12/02 02:33:49;;;;;;;9.27;1.70;;;;;;;2.85;100.00;96217.75;10211265;28;20059;-60
2021/12/02 02:38:56;;;;;;;9.68;1.65;;;;;;;2.97;100.00;96232.38;10210047;28;20043;-60
2021/12/02 02:44:00;;;;;;;11.35;1.58;;;;;;;2.99;100.00;96246.34;10205944;28;20069;-60
2021/12/02 02:49:06;;;;;;;6.38;1.38;;;;;;;3.16;100.00;96251.63;10211341;28;20047;-59
2021/12/02 02:54:13;;;;;;;8.13;1.45;;;;;;;3.27;100.00;96243.28;10218671;28;20044;-58
2021/12/02 02:59:25;;;;;;;9.30;1.50;;;;;;;3.25;100.00;96247.94;10205343;28;20504;-61
2021/12/02 03:04:35;;;;;;;7.70;1.52;;;;;;;3.22;100.00;96250.97;10212883;28;20137;-60
2021/12/02 03:09:50;;;;;;;8.70;1.50;;;;;;;3.10;100.00;96269.09;10226754;28;20073;-60
2021/12/02 03:20:13;;;;;;;7.85;1.38;;;;;;;3.14;100.00;96277.56;10205502;28;20047;-61
2021/12/02 03:25:18;;;;;;;5.90;1.42;;;;;;;3.13;100.00;96278.53;10208527;28;20131;-59
2021/12/02 03:30:20;;;;;;;9.68;1.60;;;;;;;3.08;100.00;96293.19;10214328;28;20044;-59
2021/12/02 03:35:24;;;;;;;6.53;1.40;;;;;;;3.11;100.00;96281.38;10211053;28;20047;-58
2021/12/02 03:40:28;;;;;;;6.97;1.80;;;;;;;3.10;100.00;96310.81;10216443;28;20130;-58
2021/12/02 03:45:32;;;;;;;9.73;1.80;;;;;;;3.13;100.00;96311.31;10213592;28;20062;-59
2021/12/02 03:50:35;;;;;;;7.45;1.40;;;;;;;3.10;100.00;96305.50;10216877;28;20043;-60
2021/12/02 03:55:39;;;;;;;7.95;1.52;;;;;;;3.00;100.00;96309.16;10225001;28;20052;-60
2021/12/02 04:00:42;;;;;;;8.75;1.70;;;;;;;2.95;100.00;96300.00;10216223;28;20051;-59
2021/12/02 04:05:51;;;;;;;10.05;1.60;;;;;;;2.89;100.00;96301.50;10216580;28;20040;-59
2021/12/02 04:11:09;;;;;;;7.53;1.70;;;;;;;2.70;100.00;96302.66;10215047;28;20425;-58
2021/12/02 04:16:17;;;;;;;6.97;1.40;;;;;;;2.61;100.00;96315.91;10217122;28;20102;-59
2021/12/02 04:21:20;;;;;;;10.02;1.95;;;;;;;2.50;100.00;96307.44;10212852;28;20046;-58
2021/12/02 04:26:25;;;;;;;6.35;1.50;;;;;;;2.45;100.00;96300.78;10207473;28;20473;-59
2021/12/02 04:31:28;;;;;;;9.18;1.65;;;;;;;2.40;100.00;96310.22;10243141;28;20059;-58
2021/12/02 04:36:31;;;;;;;6.80;1.65;;;;;;;2.34;100.00;96322.34;10426096;28;20060;-59
2021/12/02 04:41:35;;;;;;;9.50;1.50;;;;;;;2.34;100.00;96324.19;10424367;28;20049;-58
2021/12/02 04:46:38;;;;;;;6.72;1.30;;;;;;;2.34;100.00;96319.69;10430429;28;20063;-58
2021/12/02 04:51:41;;;;;;;11.20;1.75;;;;;;;2.29;100.00;96329.97;10423164;28;20128;-59
2021/12/02 04:56:46;;;;;;;10.23;1.67;;;;;;;2.27;100.00;96331.97;10409526;28;20141;-59
2021/12/02 05:01:49;;;;;;;4.78;1.10;;;;;;;2.37;100.00;96321.19;10419255;28;20043;-59
2021/12/02 05:06:52;;;;;;;6.15;1.38;;;;;;;2.37;100.00;96339.78;10428520;28;20056;-57
2021/12/02 05:11:57;;;;;;;5.35;1.15;;;;;;;2.29;100.00;96335.28;10424695;28;20156;-59
2021/12/02 05:17:00;;;;;;;6.28;1.30;;;;;;;2.25;100.00;96344.56;10415768;28;20152;-58
2021/12/02 05:22:03;;;;;;;5.53;1.23;;;;;;;2.26;100.00;96338.25;10409837;28;20133;-59
2021/12/02 05:27:08;;;;;;;7.68;1.27;;;;;;;2.25;100.00;96345.38;10414012;28;20079;-60
2021/12/02 05:32:11;;;;;;;7.00;1.48;;;;;;;2.11;100.00;96349.50;10417058;28;20125;-58
2021/12/02 05:37:14;;;;;;;5.57;1.40;;;;;;;2.07;100.00;96349.97;10414051;28;20041;-60
2021/12/02 05:42:19;;;;;;;6.63;1.60;;;;;;;1.98;100.00;96354.41;10427093;28;20442;-59
2021/12/02 05:54:20;;;;;;;6.47;1.40;;;;;;;1.98;100.00;96359.72;10409534;28;20045;-59
2021/12/02 05:59:25;;;;;;;7.63;1.60;;;;;;;1.99;100.00;96358.72;10415986;28;20041;-58
2021/12/02 06:04:28;;;;;;;6.95;1.38;;;;;;;2.02;100.00;96365.53;10420670;28;20053;-60
2021/12/02 06:09:31;;;;;;;6.60;1.70;;;;;;;2.03;100.00;96368.06;10418172;28;20124;-62
2021/12/02 06:14:35;;;;;;;8.65;1.70;;;;;;;2.14;100.00;96375.75;10416823;28;20110;-59
2021/12/02 06:19:39;;;;;;;8.85;1.50;;;;;;;2.18;100.00;96381.56;10419351;28;20047;-60
2021/12/02 06:24:47;;;;;;;5.78;1.20;;;;;;;2.20;100.00;96384.03;10422094;28;20473;-61
2021/12/02 06:29:51;;;;;;;7.60;1.27;;;;;;;2.18;100.00;96402.81;10426683;28;20582;-60
2021/12/02 06:34:55;;;;;;;8.77;1.30;;;;;;;2.13;100.00;96405.94;10409212;28;20080;-59
2021/12/02 06:39:58;;;;;;;5.45;1.40;;;;;;;2.12;100.00;96400.78;10407355;28;20077;-60
2021/12/02 06:45:06;;;;;;;12.32;2.10;;;;;;;2.16;100.00;96410.09;10408244;28;20087;-58
2021/12/02 06:50:13;;;;;;;8.00;1.38;;;;;;;2.13;100.00;96403.28;10426318;28;20464;-57
2021/12/02 06:55:17;;;;;;;8.38;1.30;;;;;;;2.15;100.00;96424.38;10409936;28;20076;-59
2021/12/02 07:00:23;;;;;;;9.90;1.30;;;;;;;2.07;100.00;96433.13;10407512;28;20164;-59
2021/12/02 07:05:27;;;;;;;7.15;1.45;;;;;;;2.05;100.00;96429.81;10407048;28;20136;-59
2021/12/02 07:10:32;;;;;;;4.30;1.23;;;;;;;2.05;100.00;96435.13;10412606;28;20049;-54
2021/12/02 07:15:42;;;;;;;8.20;2.58;;;;;;;2.01;100.00;96447.03;10418571;28;20052;-57
2021/12/02 07:20:47;;;;;;;10.55;1.88;;;;;;;2.00;100.00;96440.06;10420273;28;20037;-55
2021/12/02 07:25:50;;;;;;;11.90;2.03;;;;;;;1.99;100.00;96451.66;10430011;28;20063;-58
2021/12/02 07:30:56;;;;;;;7.82;2.05;;;;;;;1.99;100.00;96463.16;10423122;28;20037;-55
2021/12/02 07:35:59;;;;;;;8.30;1.50;;;;;;;1.93;100.00;96469.06;10416277;28;20046;-58
2021/12/02 07:41:04;;;;;;;6.50;1.40;;;;;;;1.96;100.00;96463.44;10417817;28;20046;-58
2021/12/02 07:46:10;;;;;;;6.07;1.48;;;;;;;1.91;100.00;96468.38;10425654;28;20148;-58
2021/12/02 07:51:16;;;;;;;6.78;1.63;;;;;;;1.91;100.00;96467.56;10436100;28;20465;-56
2021/12/02 07:56:22;;;;;;;7.25;1.40;;;;;;;1.95;100.00;96466.22;10415004;28;20045;-65
2021/12/02 08:01:27;;;;;;;6.07;1.30;;;;;;;1.90;100.00;96479.97;10421718;28;20143;-55
2021/12/02 08:06:30;;;;;;;8.85;1.60;;;;;;;1.93;100.00;96484.16;10504615;22;20067;-86
2021/12/02 08:11:34;;;;;;;9.38;1.92;;;;;;;1.97;100.00;96491.66;10469506;28;20131;-86
2021/12/02 08:16:38;;;;;;;6.82;1.50;;;;;;;2.00;100.00;96495.84;10466156;28;20047;-88
2021/12/02 08:21:41;;;;;;;7.35;1.48;;;;;;;2.04;100.00;96506.97;10484044;28;20048;-88
2021/12/02 08:26:51;;;;;;;11.85;1.73;;;;;;;2.08;100.00;96498.53;10485865;28;20048;-88
2021/12/02 08:31:56;;;;;;;8.93;1.75;;;;;;;2.17;100.00;96514.56;10460945;28;20065;-87
2021/12/02 08:37:12;;;;;;;7.47;1.52;;;;;;;2.21;100.00;96513.22;10463659;28;20091;-87
2021/12/02 08:42:16;;;;;;;10.55;1.67;;;;;;;2.26;100.00;96521.56;10471940;28;20041;-87
2021/12/02 08:47:23;;;;;;;9.25;1.70;;;;;;;2.33;100.00;96527.91;10473928;28;20430;-87
2021/12/02 08:52:28;;;;;;;7.88;1.58;;;;;;;2.37;100.00;96537.25;10468323;28;20055;-87
2021/12/02 08:57:36;;;;;;;8.63;1.63;;;;;;;2.42;100.00;96534.13;10464954;28;20056;-87
2021/12/02 09:02:41;;;;;;;8.48;1.60;;;;;;;2.48;100.00;96530.81;10462316;28;20080;-86
2021/12/02 09:07:45;;;;;;;9.20;1.90;;;;;;;2.58;100.00;96538.72;10463503;28;20526;-87
2021/12/02 09:12:51;;;;;;;9.90;1.90;;;;;;;2.70;100.00;96550.75;10468141;28;20110;-86
2021/12/02 09:17:56;;;;;;;10.10;1.55;;;;;;;2.72;100.00;96548.75;10464878;28;20049;-88
2021/12/02 09:22:59;;;;;;;7.97;1.63;;;;;;;2.69;100.00;96562.34;10472361;28;20053;-86
2021/12/02 09:28:02;;;;;;;8.82;1.35;;;;;;;2.61;100.00;96570.28;10484316;28;20044;-86
2021/12/02 09:33:07;;;;;;;12.90;1.90;;;;;;;2.54;100.00;96580.72;10467560;28;20060;-86
2021/12/02 09:38:10;;;;;;;10.75;1.70;;;;;;;2.52;100.00;96573.91;10479925;28;20087;-88
2021/12/02 09:43:15;;;;;;;8.90;1.80;;;;;;;2.52;100.00;96582.69;10471091;28;20106;-87
2021/12/02 09:48:19;;;;;;;10.05;1.75;;;;;;;2.54;100.00;96580.72;10471620;28;20059;-86
2021/12/02 09:53:25;;;;;;;13.63;1.80;;;;;;;2.54;100.00;96569.25;10458739;28;20049;-87
2021/12/02 09:58:30;;;;;;;7.97;1.50;;;;;;;2.56;100.00;96569.91;10480844;28;20067;-87
2021/12/02 10:10:32;;;;;;;8.73;1.83;;;;;;;2.62;100.00;96574.63;10457303;23;20159;-62
2021/12/02 10:15:38;;;;;;;11.43;1.55;;;;;;;2.59;100.00;96567.78;10438536;28;20147;-61
2021/12/02 10:20:44;;;;;;;9.98;1.80;;;;;;;2.51;100.00;96564.25;10443327;28;20570;-64
2021/12/02 10:25:50;;;;;;;11.27;1.90;;;;;;;2.35;100.00;96567.66;10440727;28;20049;-64
2021/12/02 10:30:57;;;;;;;7.97;1.65;;;;;;;2.30;100.00;96573.41;10321701;28;20129;-62
2021/12/02 10:36:01;;;;;;;9.65;2.08;;;;;;;2.18;100.00;96571.97;10237670;28;20118;-62
2021/12/02 10:41:08;;;;;;;9.68;1.67;;;;;;;2.08;100.00;96583.53;10236065;28;20563;-62
2021/12/02 10:46:16;;;;;;;8.15;1.52;;;;;;;2.08;100.00;96583.53;10234869;28;20058;-63
2021/12/02 10:51:38;;;;;;;11.57;1.70;;;;;;;2.00;100.00;96586.13;10239871;28;20485;-64
2021/12/02 10:56:43;;;;;;;;;;;;;;;1.97;100.00;96587.28;10238995;28;20414;-64
2021/12/02 11:01:47;;;;;;;8.25;1.52;;;;;;;1.93;100.00;96587.72;10220482;28;20392;-60
2021/12/02 11:06:55;;;;;;;10.68;2.20;;;;;;;1.91;100.00;96581.72;10230712;28;20058;-64
2021/12/02 11:12:17;;;;;;;10.85;1.92;;;;;;;1.93;100.00;96582.41;10235379;28;20043;-61
2021/12/02 11:17:20;;;;;;;11.38;1.60;;;;;;;1.96;100.00;96579.44;10235584;28;20134;-62
2021/12/02 11:22:24;;;;;;;12.85;1.63;;;;;;;2.00;100.00;96586.94;10236200;28;20242;-58
2021/12/02 11:27:35;;;;;;;10.93;1.67;;;;;;;1.95;100.00;96585.72;10236536;28;20053;-61
2021/12/02 11:32:45;;;;;;;9.80;2.00;;;;;;;2.02;100.00;96580.66;10245860;28;20098;-64
2021/12/02 11:37:51;;;;;;;13.18;3.83;;;;;;;1.98;100.00;96578.31;10246445;28;20051;-59
2021/12/02 11:42:56;;;;;;;13.43;3.25;;;;;;;1.97;100.00;96589.94;10236784;28;20040;-62
2021/12/02 11:48:00;;;;;;;16.45;3.10;;;;;;;1.95;100.00;96588.38;10237057;28;20047;-61
2021/12/02 11:53:03;;;;;;;15.30;2.70;;;;;;;2.00;100.00;96586.13;10217581;28;20082;-64
2021/12/02 11:58:08;;;;;;;10.32;2.55;;;;;;;2.03;100.00;96595.59;10236543;28;20126;-62
2021/12/02 12:03:14;;;;;;;11.70;3.47;;;;;;;2.07;100.00;96589.81;10238022;28;20731;-62
2021/12/02 12:08:30;;;;;;;9.18;2.83;;;;;;;2.12;100.00;96600.84;10244981;28;20083;-63
2021/12/02 12:13:46;;;;;;;11.88;2.42;;;;;;;2.10;100.00;96596.69;10238873;28;20122;-61
2021/12/02 12:18:49;;;;;;;9.00;2.20;;;;;;;2.20;100.00;96591.25;10239932;28;20123;-64
2021/12/02 12:24:00;;;;;;;11.02;2.15;;;;;;;2.19;100.00;96595.75;10230889;28;20047;-63
2021/12/02 12:29:32;;;;;;;9.88;2.58;;;;;;;2.24;100.00;96603.25;10239192;28;20075;-64
2021/12/02 12:34:49;;;;;;;15.98;2.88;;;;;;;2.27;100.00;96611.75;10238554;28;20059;-63
2021/12/02 12:40:06;;;;;;;14.55;2.67;;;;;;;2.28;100.00;96604.63;10242912;28;20071;-62
2021/12/02 12:45:13;;;;;;;11.60;2.53;;;;;;;2.33;100.00;96601.50;10246902;28;20043;-63
2021/12/02 12:50:29;;;;;;;11.40;2.15;;;;;;;2.43;100.00;96610.22;10245728;28;20048;-63
2021/12/02 12:55:33;;;;;;;7.25;2.10;;;;;;;2.45;100.00;96625.00;10244077;28;20510;-64
2021/12/02 13:00:41;;;;;;;12.95;2.40;;;;;;;2.52;100.00;96617.25;10242905;28;20567;-63
2021/12/02 13:05:49;;;;;;;7.47;2.70;;;;;;;2.47;100.00;96617.72;10223630;28;20066;-64
2021/12/02 13:10:54;;;;;;;12.82;2.60;;;;;;;2.46;100.00;96639.97;10240473;28;20078;-62
2021/12/02 13:16:11;;;;;;;10.02;2.40;;;;;;;2.43;100.00;96639.44;10240574;28;20074;-62
2021/12/02 13:21:31;;;;;;;12.20;2.58;;;;;;;2.38;100.00;96645.22;10238897;28;20401;-63
2021/12/02 13:26:36;;;;;;;12.25;2.22;;;;;;;2.49;100.00;96645.97;10239544;28;20509;-62
2021/12/02 13:31:47;;;;;;;9.70;2.15;;;;;;;2.51;100.00;96649.31;10243920;28;20054;-63
2021/12/02 13:36:53;;;;;;;14.18;2.83;;;;;;;2.52;100.00;96653.66;10241313;28;20114;-64
2021/12/02 13:42:00;;;;;;;10.48;2.28;;;;;;;2.52;100.00;96650.97;10240464;28;20823;-65
2021/12/02 13:47:10;;;;;;;7.60;1.98;;;;;;;2.46;100.00;96661.22;10306939;28;20055;-63
2021/12/02 13:57:39;;;;;;;7.75;1.77;;;;;;;2.40;100.00;96669.81;10240278;28;20837;-63
2021/12/02 14:02:46;;;;;;;7.50;1.50;;;;;;;2.38;100.00;96669.16;10238529;28;20071;-65
2021/12/02 14:07:49;;;;;;;8.10;1.80;;;;;;;2.38;100.00;96670.94;10233951;28;20059;-64
2021/12/02 14:12:55;;;;;;;8.55;1.67;;;;;;;2.36;100.00;96676.44;10246249;22;20059;-83
2021/12/02 14:18:01;;;;;;;11.77;3.80;;;;;;;2.38;100.00;96679.78;10224544;28;20055;-85
2021/12/02 14:23:08;;;;;;;10.25;3.72;;;;;;;2.33;100.00;96676.72;10226529;28;20131;-85
2021/12/02 14:28:20;;;;;;;15.00;4.00;;;;;;;2.34;100.00;96681.06;10232880;28;20492;-83
2021/12/02 14:46:19;;;;;;;3.42;1.17;;;;;;;1.54;100.00;96727.69;10329361;28;20054;-82
2021/12/02 14:51:22;;;;;;;2.65;0.95;;;;;;;1.42;100.00;96736.81;10292946;28;20689;-84
2021/12/02 14:56:33;;;;;;;3.70;1.13;;;;;;;1.30;100.00;96764.50;10213985;28;20468;-83
2021/12/02 15:01:38;;;;;;;4.03;1.23;;;;;;;1.25;100.00;96769.38;10230192;28;20048;-82
2021/12/02 15:06:44;;;;;;;3.97;1.73;;;;;;;1.24;100.00;96779.16;10221331;28;20051;-83
2021/12/02 15:11:49;;;;;;;4.88;1.90;;;;;;;1.23;100.00;96802.19;10214506;28;20059;-86
2021/12/02 15:16:55;;;;;;;3.47;2.15;;;;;;;1.21;100.00;96809.47;10212350;28;20075;-86
2021/12/02 15:21:58;;;;;;;6.15;2.22;;;;;;;1.17;100.00;96824.00;10219661;28;20077;-84
2021/12/02 15:27:11;;;;;;;5.50;2.08;;;;;;;1.15;100.00;96831.25;10235120;28;20109;-84
2021/12/02 15:32:15;;;;;;;5.63;2.00;;;;;;;1.15;100.00;96839.22;10222030;28;20060;-86
2021/12/02 15:37:21;;;;;;;3.60;2.13;;;;;;;1.12;100.00;96847.44;10243143;28;20056;-83
2021/12/02 15:43:17;;;;;;;2.40;2.15;;;;;;;0.88;100.00;96855.84;10235011;28;20071;-84
2021/12/02 15:48:50;;;;;;;3.50;2.40;;;;;;;0.82;100.00;96861.69;10227065;28;20143;-83
2021/12/02 15:53:53;;;;;;;3.65;3.25;;;;;;;0.80;100.00;96874.25;10231651;28;20067;-83
2021/12/02 15:59:36;;;;;;;5.60;3.30;;;;;;;0.80;100.00;96867.13;10232203;28;20082;-84
2021/12/02 16:04:44;;;;;;;4.22;3.17;;;;;;;0.78;100.00;96877.03;10269154;28;20043;-83
2021/12/02 16:10:18;;;;;;;3.88;3.47;;;;;;;0.80;100.00;96890.16;10242608;28;20055;-84
2021/12/02 16:15:21;;;;;;;4.50;3.30;;;;;;;0.83;100.00;96903.97;10223538;28;20119;-84
2021/12/02 16:20:25;;;;;;;3.45;2.80;;;;;;;0.86;100.00;96916.09;10227068;28;20133;-81
2021/12/02 16:25:29;;;;;;;4.15;2.80;;;;;;;0.88;100.00;96930.88;10231134;28;20539;-84
2021/12/02 16:30:37;;;;;;;3.85;2.70;;;;;;;0.89;100.00;96929.09;10238235;28;20051;-83
2021/12/02 16:35:41;;;;;;;4.45;3.15;;;;;;;0.88;100.00;96938.03;10221139;28;20055;-81
2021/12/02 16:40:45;;;;;;;3.60;3.30;;;;;;;0.87;100.00;96945.16;10217058;28;20058;-82
2021/12/02 16:45:50;;;;;;;4.05;2.90;;;;;;;0.88;100.00;96948.63;10226499;28;20142;-83
2021/12/02 16:50:54;;;;;;;5.53;2.80;;;;;;;0.89;100.00;96956.44;10225084;28;20048;-84
2021/12/02 16:56:00;;;;;;;4.13;3.30;;;;;;;0.88;100.00;96949.44;10255217;28;20047;-81
2021/12/02 17:01:04;;;;;;;4.63;3.92;;;;;;;0.87;100.00;96953.09;10218050;28;20729;-83
2021/12/02 17:06:09;;;;;;;5.40;3.90;;;;;;;0.87;100.00;96966.34;10211359;28;20052;-82
2021/12/02 17:11:12;;;;;;;4.63;4.20;;;;;;;0.87;100.00;96976.09;10215249;28;20123;-83
2021/12/02 17:16:17;;;;;;;6.55;5.00;;;;;;;0.87;100.00;96979.63;10230037;28;20061;-79
2021/12/02 17:21:22;;;;;;;6.72;5.03;;;;;;;0.86;100.00;96988.53;10273173;28;20078;-81
2021/12/02 17:26:25;;;;;;;5.72;4.40;;;;;;;0.83;100.00;96988.81;10267155;28;20031;-83
2021/12/02 17:31:28;;;;;;;6.07;4.75;;;;;;;0.79;100.00;97005.13;10263413;28;20072;-84
2021/12/02 17:36:32;;;;;;;6.18;4.50;;;;;;;0.77;100.00;97013.19;10215375;28;20525;-85
2021/12/02 17:41:36;;;;;;;5.25;4.65;;;;;;;0.73;100.00;97027.69;10211154;28;20047;-85
2021/12/02 17:46:40;;;;;;;14.75;9.32;;;;;;;0.67;100.00;97029.06;10218079;28;20059;-83
2021/12/02 17:51:44;;;;;;;7.40;5.70;;;;;;;0.63;100.00;97034.78;10212904;28;20142;-84
2021/12/02 17:56:49;;;;;;;7.43;6.35;;;;;;;0.59;100.00;97040.34;10256718;22;20071;-63
2021/12/02 18:01:53;;;;;;;8.30;6.03;;;;;;;0.59;100.00;97060.69;10243764;28;20158;-63
2021/12/02 18:06:58;;;;;;;9.30;6.50;;;;;;;0.56;100.00;97068.91;10239743;28;20116;-64
2021/12/02 18:12:01;;;;;;;8.63;6.35;;;;;;;0.54;100.00;97070.84;10241957;28;20725;-63
2021/12/02 18:17:07;;;;;;;10.52;6.68;;;;;;;0.53;100.00;97083.25;10239678;28;20489;-64
2021/12/02 18:22:28;;;;;;;10.80;7.75;;;;;;;0.54;100.00;97092.06;10282419;28;20054;-64
2021/12/02 18:27:31;;;;;;;9.07;6.07;;;;;;;0.52;100.00;97094.84;10279316;28;20051;-63
2021/12/02 18:32:35;;;;;;;10.93;7.82;;;;;;;0.53;100.00;97109.75;10263289;28;20485;-62
2021/12/02 18:37:40;;;;;;;11.35;8.18;;;;;;;0.52;100.00;97108.09;10221008;28;20043;-70
2021/12/02 18:42:44;;;;;;;11.95;7.78;;;;;;;0.50;100.00;97123.28;10218628;28;20062;-69
2021/12/02 18:47:47;;;;;;;12.40;8.27;;;;;;;0.50;100.00;97125.06;10252269;28;20039;-62
2021/12/02 18:52:52;;;;;;;12.45;9.50;;;;;;;0.47;100.00;97133.31;10236825;28;20040;-62
2021/12/02 18:57:56;;;;;;;19.52;11.45;;;;;;;0.41;100.00;97140.78;10248906;28;20075;-62
2021/12/02 19:02:59;;;;;;;14.93;9.63;;;;;;;0.42;100.00;97152.22;10236970;28;20054;-62
2021/12/02 19:08:30;;;;;;;17.33;10.45;;;;;;;0.40;100.00;97156.81;10243834;28;20047;-64
2021/12/02 19:29:40;;;;;;;18.13;10.75;;;;;;;0.37;100.00;97196.81;10232930;28;20093;-66
2021/12/02 19:34:44;;;;;;;16.08;10.27;;;;;;;0.35;100.00;97196.09;10237036;28;20101;-65
2021/12/02 19:39:49;;;;;;;17.75;10.38;;;;;;;0.33;100.00;97203.31;10234395;28;20050;-64
2021/12/02 19:44:53;;;;;;;13.25;8.18;;;;;;;0.26;100.00;97206.50;10233927;28;20674;-69
2021/12/02 19:49:56;;;;;;;14.00;7.20;;;;;;;0.22;100.00;97213.00;10297865;28;20493;-62
2021/12/02 19:55:01;;;;;;;14.70;6.28;;;;;;;0.17;100.00;97212.56;10235075;28;20499;-65
2021/12/02 20:00:06;;;;;;;10.30;5.20;;;;;;;0.18;100.00;97216.84;10247379;28;20141;-61
2021/12/02 20:05:12;;;;;;;11.23;5.13;;;;;;;0.21;100.00;97213.97;10234592;28;20146;-61
2021/12/02 20:15:51;;;;;;;10.88;4.30;;;;;;;0.22;100.00;97228.06;10263924;28;20054;-57
2021/12/02 20:20:54;;;;;;;8.02;3.58;;;;;;;0.19;100.00;97231.78;10276175;28;20066;-55
2021/12/02 20:25:58;;;;;;;7.95;3.60;;;;;;;0.16;100.00;97240.00;10281603;28;21732;-63
2021/12/02 20:31:06;;;;;;;12.55;4.60;;;;;;;0.15;100.00;97246.25;10279314;28;20114;-58
2021/12/02 20:36:09;;;;;;;9.85;4.30;;;;;;;0.26;100.00;97248.88;10278404;28;20045;-55
2021/12/02 20:41:13;;;;;;;12.48;4.70;;;;;;;0.23;100.00;97254.41;10279481;28;20122;-59
2021/12/02 20:46:23;;;;;;;8.73;4.65;;;;;;;0.22;100.00;97260.69;10277246;28;20378;-55
2021/12/02 20:51:28;;;;;;;10.32;4.85;;;;;;;0.17;100.00;97270.81;10279127;28;20050;-54
2021/12/02 20:56:32;;;;;;;8.00;4.10;;;;;;;0.12;100.00;97270.34;10275069;28;20035;-62
2021/12/02 21:01:37;;;;;;;8.02;3.58;;;;;;;0.05;100.00;97277.94;10277921;28;20130;-60
2021/12/02 21:06:40;;;;;;;4.63;2.70;;;;;;;0.03;100.00;97277.22;10275466;28;20055;-63
2021/12/02 21:11:43;;;;;;;6.05;2.70;;;;;;;-0.02;100.00;97298.75;10275745;28;20062;-62
2021/12/02 21:16:49;;;;;;;5.72;2.70;;;;;;;-0.06;100.00;97312.38;10277009;28;20063;-59
2021/12/02 21:21:53;;;;;;;7.05;3.30;;;;;;;-0.14;100.00;97320.91;10276900;28;20039;-60
2021/12/02 21:26:56;;;;;;;5.47;3.58;;;;;;;-0.20;100.00;97321.41;10275079;28;20217;-62
2021/12/02 21:32:02;;;;;;;11.65;5.72;;;;;;;-0.28;100.00;97334.38;10276838;28;20043;-65
2021/12/02 21:37:16;;;;;;;11.18;6.07;;;;;;;-0.34;100.00;97336.56;10277024;28;20497;-64
2021/12/02 21:42:23;;;;;;;12.07;7.40;;;;;;;-0.44;100.00;97355.91;10277781;28;20082;-64
2021/12/02 21:47:28;;;;;;;11.40;6.50;;;;;;;-0.50;100.00;97360.72;10376307;28;20141;-63
2021/12/02 21:52:31;;;;;;;12.60;5.88;;;;;;;-0.56;100.00;97378.88;10277993;28;20043;-60
2021/12/02 21:57:36;;;;;;;11.05;5.95;;;;;;;-0.60;100.00;97382.69;10271056;28;20500;-59
2021/12/02 22:02:42;;;;;;;11.23;5.70;;;;;;;-0.65;100.00;97391.81;10278881;28;20561;-62
2021/12/02 22:07:48;;;;;;;13.60;6.10;;;;;;;-0.69;100.00;97400.97;10278179;28;20043;-61
2021/12/02 22:12:51;;;;;;;12.40;5.68;;;;;;;-0.77;100.00;97403.34;10275894;28;20528;-62
2021/12/02 22:17:56;;;;;;;12.63;6.15;;;;;;;-0.84;100.00;97410.91;10277862;28;20078;-62
2021/12/02 22:22:59;;;;;;;12.80;6.97;;;;;;;-0.82;100.00;97405.50;10277073;28;20039;-62
2021/12/02 22:28:03;;;;;;;11.30;7.10;;;;;;;-0.84;100.00;97415.34;10276958;28;20043;-61
2021/12/02 22:33:07;;;;;;;11.70;7.78;;;;;;;-0.91;100.00;97417.59;10274579;28;20125;-58
2021/12/02 22:38:12;;;;;;;14.27;6.65;;;;;;;-0.97;100.00;97408.31;10276571;28;20078;-60
2021/12/02 22:43:16;;;;;;;19.48;7.32;;;;;;;-0.98;100.00;97419.84;10275458;28;20078;-60
2021/12/02 22:48:20;;;;;;;14.27;7.78;;;;;;;-1.05;100.00;97426.56;10274899;28;20174;-63
2021/12/02 22:53:26;;;;;;;15.00;8.30;;;;;;;-1.11;100.00;97422.56;10279057;28;20571;-65
2021/12/02 22:58:30;;;;;;;13.27;7.45;;;;;;;-1.04;100.00;97437.94;10278554;28;20129;-66
2021/12/02 23:03:35;;;;;;;14.45;6.50;;;;;;;-1.09;100.00;97431.22;10277443;28;20047;-64
2021/12/02 23:08:39;;;;;;;12.75;6.75;;;;;;;-1.09;100.00;97441.78;10276515;28;20082;-65
2021/12/02 23:13:42;;;;;;;12.75;7.05;;;;;;;-1.19;100.00;97435.50;10275559;28;20055;-65
2021/12/02 23:18:47;;;;;;;13.25;7.80;;;;;;;-1.14;100.00;97453.66;10278848;28;20049;-65
2021/12/02 23:23:50;;;;;;;15.18;8.02;;;;;;;-1.03;100.00;97451.06;10277938;28;20046;-66
2021/12/02 23:28:54;;;;;;;15.23;7.57;;;;;;;-0.98;100.00;97462.13;10278608;28;20412;-67
2021/12/02 23:34:00;;;;;;;19.15;8.05;;;;;;;-0.88;100.00;97469.41;10279141;28;20101;-65
2021/12/02 23:39:05;;;;;;;16.98;8.75;;;;;;;-0.84;100.00;97492.00;10274243;28;20129;-65
2021/12/02 23:44:08;;;;;;;15.15;7.80;;;;;;;-0.86;100.00;97493.91;10273965;28;20112;-67
2021/12/02 23:49:13;;;;;;;15.80;8.80;;;;;;;-0.87;100.00;97498.38;10276359;28;20077;-65
2021/12/02 23:54:17;;;;;;;15.15;7.82;;;;;;;-0.91;100.00;97511.94;10275172;28;20047;-64
2021/12/02 23:59:20;;;;;;;15.43;8.70;;;;;;;-0.93;100.00;97526.13;10282925;28;20079;-65
